createdAt,value
2019-06-08T00:01:36.098Z,66.10
2019-06-08T00:04:07.289Z,65.20
2019-06-08T00:06:37.515Z,65.50
2019-06-08T00:09:07.825Z,65.50
2019-06-08T00:11:40.120Z,65.40
2019-06-08T00:14:09.546Z,65.60
2019-06-08T00:16:39.576Z,67.10
2019-06-08T00:19:09.992Z,65.80
2019-06-08T00:21:40.274Z,65.20
2019-06-08T00:24:10.548Z,66.00
2019-06-08T00:26:40.777Z,65.90
2019-06-08T00:29:11.962Z,65.80
2019-06-08T00:31:42.180Z,66.00
2019-06-08T00:34:12.365Z,66.20
2019-06-08T00:36:42.579Z,66.30
2019-06-08T00:39:13.187Z,66.10
2019-06-08T00:41:43.475Z,65.80
2019-06-08T00:44:15.107Z,66.00
2019-06-08T00:46:45.385Z,66.00
2019-06-08T00:49:16.436Z,66.00
2019-06-08T00:51:46.769Z,66.20
2019-06-08T00:54:19.336Z,66.90
2019-06-08T00:56:49.608Z,66.30
2019-06-08T00:59:21.858Z,66.20
2019-06-08T01:01:51.327Z,66.10
2019-06-08T01:04:22.484Z,66.50
2019-06-08T01:06:54.018Z,66.10
2019-06-08T01:09:24.313Z,66.20
2019-06-08T01:11:54.507Z,66.40
2019-06-08T01:14:24.900Z,66.20
2019-06-08T01:16:56.110Z,66.80
2019-06-08T01:19:27.381Z,66.40
2019-06-08T01:21:59.983Z,66.40
2019-06-08T01:24:30.048Z,67.60
2019-06-08T01:27:00.307Z,66.50
2019-06-08T01:29:30.588Z,66.90
2019-06-08T01:32:00.770Z,66.70
2019-06-08T01:34:31.080Z,67.50
2019-06-08T01:37:01.265Z,67.00
2019-06-08T01:39:36.249Z,67.00
2019-06-08T01:42:06.439Z,66.90
2019-06-08T01:44:36.673Z,67.10
2019-06-08T01:47:06.839Z,67.20
2019-06-08T01:49:38.084Z,67.20
2019-06-08T01:52:08.267Z,67.20
2019-06-08T01:54:38.628Z,67.10
2019-06-08T01:57:08.879Z,67.10
2019-06-08T01:59:39.160Z,67.10
2019-06-08T02:02:09.359Z,67.00
2019-06-08T02:04:39.647Z,67.00
2019-06-08T02:07:09.893Z,67.20
2019-06-08T02:09:42.133Z,67.30
2019-06-08T02:12:12.323Z,67.30
2019-06-08T02:14:42.532Z,67.50
2019-06-08T02:17:12.905Z,67.80
2019-06-08T02:19:43.116Z,68.20
2019-06-08T02:22:13.429Z,67.30
2019-06-08T02:24:43.651Z,67.60
2019-06-08T02:27:13.838Z,68.30
2019-06-08T02:29:44.058Z,67.60
2019-06-08T02:32:21.117Z,67.50
2019-06-08T02:34:51.366Z,67.50
2019-06-08T02:37:22.672Z,67.80
2019-06-08T02:39:52.911Z,68.40
2019-06-08T02:42:23.266Z,68.10
2019-06-08T02:44:53.473Z,67.90
2019-06-08T02:47:28.523Z,68.00
2019-06-08T02:49:59.301Z,68.70
2019-06-08T02:52:31.464Z,69.80
2019-06-08T02:55:02.231Z,68.60
2019-06-08T02:57:35.442Z,68.50
2019-06-08T03:00:10.633Z,68.60
2019-06-08T03:02:42.321Z,68.70
2019-06-08T03:05:13.069Z,68.70
2019-06-08T03:07:45.577Z,68.50
2019-06-08T03:10:16.335Z,68.50
2019-06-08T03:12:47.877Z,68.60
2019-06-08T03:15:21.104Z,68.60
2019-06-08T03:17:51.308Z,68.50
2019-06-08T03:20:21.645Z,68.50
2019-06-08T03:22:51.866Z,68.90
2019-06-08T03:25:23.238Z,68.50
2019-06-08T03:27:53.404Z,68.40
2019-06-08T03:30:23.768Z,68.40
2019-06-08T03:32:56.441Z,68.30
2019-06-08T03:35:25.781Z,68.40
2019-06-08T03:37:56.065Z,68.60
2019-06-08T03:40:27.429Z,68.60
2019-06-08T03:42:59.711Z,68.50
2019-06-08T03:45:30.566Z,68.50
2019-06-08T03:48:00.786Z,68.40
2019-06-08T03:50:31.020Z,68.50
2019-06-08T03:53:01.354Z,68.50
2019-06-08T03:55:31.611Z,68.40
2019-06-08T03:58:01.902Z,68.60
2019-06-08T04:00:33.148Z,68.50
2019-06-08T04:03:03.394Z,68.60
2019-06-08T04:05:34.620Z,68.50
2019-06-08T04:08:04.930Z,68.40
2019-06-08T04:10:35.180Z,68.40
2019-06-08T04:13:22.426Z,68.30
2019-06-08T04:15:53.730Z,68.30
2019-06-08T04:18:23.965Z,68.40
2019-06-08T04:20:55.155Z,68.30
2019-06-08T04:23:25.430Z,68.20
2019-06-08T04:25:55.916Z,68.20
2019-06-08T04:28:26.121Z,68.20
2019-06-08T04:30:56.500Z,68.30
2019-06-08T04:33:26.865Z,68.30
2019-06-08T04:35:57.274Z,68.30
2019-06-08T04:38:30.002Z,68.10
2019-06-08T04:41:01.790Z,68.20
2019-06-08T04:43:32.987Z,68.20
2019-06-08T04:46:03.322Z,68.60
2019-06-08T04:48:34.858Z,68.40
2019-06-08T04:51:06.081Z,68.30
2019-06-08T04:53:36.264Z,68.60
2019-06-08T04:56:06.477Z,68.50
2019-06-08T04:58:39.804Z,68.50
2019-06-08T05:01:09.577Z,68.50
2019-06-08T05:03:42.811Z,68.60
2019-06-08T05:06:12.591Z,68.50
2019-06-08T05:08:43.085Z,68.50
2019-06-08T05:11:13.504Z,68.40
2019-06-08T05:13:45.259Z,68.40
2019-06-08T05:16:17.702Z,68.30
2019-06-08T05:18:49.457Z,68.20
2019-06-08T05:21:20.106Z,68.20
2019-06-08T05:23:58.224Z,68.20
2019-06-08T05:26:22.301Z,68.00
2019-06-08T05:28:52.589Z,68.20
2019-06-08T05:31:22.811Z,68.60
2019-06-08T05:33:54.244Z,67.90
2019-06-08T05:36:24.725Z,67.90
2019-06-08T05:38:55.025Z,67.90
2019-06-08T05:41:25.448Z,67.80
2019-06-08T05:43:55.616Z,67.70
2019-06-08T05:46:25.828Z,67.60
2019-06-08T05:48:56.098Z,67.50
2019-06-08T05:51:26.376Z,67.20
2019-06-08T05:53:56.733Z,67.30
2019-06-08T05:56:27.005Z,67.20
2019-06-08T05:58:59.173Z,67.10
2019-06-08T06:01:44.598Z,67.20
2019-06-08T06:04:15.929Z,67.00
2019-06-08T06:06:46.632Z,67.10
2019-06-08T06:09:16.921Z,66.90
2019-06-08T06:11:47.144Z,66.50
2019-06-08T06:14:18.298Z,66.60
2019-06-08T06:16:49.135Z,66.30
2019-06-08T06:19:20.694Z,66.50
2019-06-08T06:21:51.540Z,66.60
2019-06-08T06:24:26.045Z,66.50
2019-06-08T06:26:56.280Z,66.50
2019-06-08T06:29:26.796Z,66.40
2019-06-08T06:31:57.084Z,66.40
2019-06-08T06:34:28.353Z,66.40
2019-06-08T06:36:58.602Z,66.30
2019-06-08T06:39:29.735Z,66.20
2019-06-08T06:42:00.021Z,65.10
2019-06-08T06:44:30.282Z,65.40
2019-06-08T06:47:00.500Z,65.60
2019-06-08T06:49:30.691Z,65.30
2019-06-08T06:52:00.990Z,65.30
2019-06-08T06:54:31.229Z,65.20
2019-06-08T06:57:01.533Z,65.00
2019-06-08T06:59:32.880Z,65.00
2019-06-08T07:02:03.248Z,65.00
2019-06-08T07:04:33.468Z,65.00
2019-06-08T07:07:03.785Z,64.90
2019-06-08T07:09:34.058Z,64.80
2019-06-08T07:12:05.307Z,64.50
2019-06-08T07:14:35.481Z,64.60
2019-06-08T07:17:05.695Z,64.50
2019-06-08T07:19:36.010Z,64.40
2019-06-08T07:22:06.229Z,64.30
2019-06-08T07:24:36.540Z,64.00
2019-06-08T07:27:07.679Z,64.00
2019-06-08T07:29:38.013Z,64.10
2019-06-08T07:32:12.316Z,63.50
2019-06-08T07:34:42.534Z,62.70
2019-06-08T07:37:12.832Z,62.80
2019-06-08T07:39:43.060Z,63.30
2019-06-08T07:42:13.396Z,62.70
2019-06-08T07:44:43.634Z,63.20
2019-06-08T07:47:14.894Z,63.10
2019-06-08T07:49:45.143Z,62.90
2019-06-08T07:52:16.357Z,62.80
2019-06-08T07:54:46.614Z,62.80
2019-06-08T07:57:17.826Z,62.70
2019-06-08T07:59:49.171Z,63.00
2019-06-08T08:02:20.108Z,62.20
2019-06-08T08:04:50.514Z,62.30
2019-06-08T08:07:20.830Z,62.30
2019-06-08T08:09:53.035Z,61.50
2019-06-08T08:12:23.517Z,61.80
2019-06-08T08:14:55.213Z,61.50
2019-06-08T08:17:25.731Z,61.60
2019-06-08T08:19:57.296Z,61.50
2019-06-08T08:22:29.666Z,61.50
2019-06-08T08:25:04.169Z,58.50
2019-06-08T08:27:30.757Z,59.60
2019-06-08T08:30:02.084Z,60.00
2019-06-08T08:32:32.698Z,59.90
2019-06-08T08:35:08.576Z,59.10
2019-06-08T08:37:38.241Z,58.90
2019-06-08T08:40:09.226Z,58.00
2019-06-08T08:42:39.413Z,58.00
2019-06-08T08:45:10.200Z,57.80
2019-06-08T08:47:40.451Z,57.60
2019-06-08T08:50:10.986Z,56.30
2019-06-08T08:52:41.260Z,57.00
2019-06-08T08:55:30.962Z,55.70
2019-06-08T08:58:02.222Z,53.90
2019-06-08T09:00:32.734Z,55.00
2019-06-08T09:03:24.083Z,55.10
2019-06-08T09:05:34.793Z,55.50
2019-06-08T09:08:05.264Z,52.70
2019-06-08T09:10:51.766Z,55.40
2019-06-08T09:13:22.520Z,53.30
2019-06-08T09:15:53.766Z,55.00
2019-06-08T09:18:24.181Z,55.20
2019-06-08T09:20:55.893Z,54.60
2019-06-08T09:23:28.005Z,54.60
2019-06-08T09:26:05.964Z,53.30
2019-06-08T09:28:31.720Z,53.70
2019-06-08T09:31:04.065Z,53.50
2019-06-08T09:33:38.755Z,54.00
2019-06-08T09:36:09.944Z,52.30
2019-06-08T09:38:41.335Z,53.50
2019-06-08T09:41:12.805Z,52.80
2019-06-08T09:43:44.384Z,53.60
2019-06-08T09:46:17.740Z,53.30
2019-06-08T09:48:49.055Z,53.50
2019-06-08T09:51:22.159Z,53.70
2019-06-08T09:53:54.379Z,53.80
2019-06-08T09:56:28.272Z,52.50
2019-06-08T09:59:04.030Z,53.20
2019-06-08T10:01:33.661Z,51.40
2019-06-08T10:04:08.518Z,52.50
2019-06-08T10:06:40.444Z,51.50
2019-06-08T10:09:11.719Z,51.90
2019-06-08T10:11:43.359Z,51.30
2019-06-08T10:14:18.525Z,51.90
2019-06-08T10:16:48.501Z,51.70
2019-06-08T10:19:20.280Z,52.20
2019-06-08T10:21:52.404Z,49.50
2019-06-08T10:24:26.416Z,50.00
2019-06-08T10:26:59.277Z,50.90
2019-06-08T10:29:30.214Z,50.90
2019-06-08T10:32:03.777Z,50.60
2019-06-08T10:34:34.578Z,48.60
2019-06-08T10:37:12.543Z,49.00
2019-06-08T10:39:40.943Z,49.80
2019-06-08T10:42:14.345Z,47.10
2019-06-08T10:44:45.774Z,49.20
2019-06-08T10:47:16.759Z,48.80
2019-06-08T10:49:48.932Z,48.80
2019-06-08T10:52:20.666Z,48.90
2019-06-08T10:54:51.332Z,47.70
2019-06-08T10:57:22.592Z,49.10
2019-06-08T10:59:53.653Z,49.00
2019-06-08T11:02:24.052Z,49.00
2019-06-08T11:04:54.669Z,47.60
2019-06-08T11:07:27.843Z,45.70
2019-06-08T11:09:58.747Z,45.00
2019-06-08T11:12:31.860Z,45.80
2019-06-08T11:15:05.098Z,48.00
2019-06-08T11:17:40.396Z,46.40
2019-06-08T11:20:13.630Z,46.90
2019-06-08T11:22:43.771Z,46.50
2019-06-08T11:25:16.651Z,46.20
2019-06-08T11:27:47.550Z,47.40
2019-06-08T11:30:26.405Z,47.00
2019-06-08T11:32:53.557Z,42.50
2019-06-08T11:35:29.537Z,46.90
2019-06-08T11:38:02.117Z,46.70
2019-06-08T11:40:34.508Z,46.70
2019-06-08T11:43:06.480Z,46.50
2019-06-08T11:45:38.657Z,46.20
2019-06-08T11:48:10.853Z,45.90
2019-06-08T11:50:43.703Z,46.20
2019-06-08T11:53:14.939Z,44.70
2019-06-08T11:55:51.150Z,45.40
2019-06-08T11:58:23.942Z,44.40
2019-06-08T12:01:06.551Z,45.40
2019-06-08T12:03:38.721Z,44.50
2019-06-08T12:06:23.362Z,39.90
2019-06-08T12:08:53.023Z,44.70
2019-06-08T12:11:24.541Z,44.70
2019-06-08T12:13:59.860Z,44.30
2019-06-08T12:16:31.904Z,43.60
2019-06-08T12:19:06.025Z,44.20
2019-06-08T12:21:36.581Z,44.50
2019-06-08T12:24:08.161Z,44.50
2019-06-08T12:26:37.746Z,45.20
2019-06-08T12:29:11.320Z,42.00
2019-06-08T12:31:39.822Z,44.20
2019-06-08T12:34:13.414Z,44.40
2019-06-08T12:36:43.912Z,44.10
2019-06-08T12:39:14.336Z,44.10
2019-06-08T12:41:44.617Z,44.70
2019-06-08T12:44:17.371Z,45.20
2019-06-08T12:46:48.714Z,44.90
2019-06-08T12:49:20.367Z,44.50
2019-06-08T12:51:52.136Z,45.30
2019-06-08T12:54:22.483Z,45.90
2019-06-08T12:56:52.687Z,46.30
2019-06-08T12:59:23.219Z,44.40
2019-06-08T13:01:53.497Z,43.50
2019-06-08T13:04:24.043Z,44.70
2019-06-08T13:06:55.422Z,44.60
2019-06-08T13:09:29.697Z,46.00
2019-06-08T13:11:59.486Z,46.00
2019-06-08T13:14:29.824Z,45.00
2019-06-08T13:17:01.156Z,42.80
2019-06-08T13:19:33.793Z,43.50
2019-06-08T13:22:04.050Z,41.70
2019-06-08T13:24:55.641Z,41.90
2019-06-08T13:27:28.085Z,43.30
2019-06-08T13:29:57.846Z,43.60
2019-06-08T13:32:28.692Z,43.60
2019-06-08T13:35:10.408Z,42.40
2019-06-08T13:37:43.044Z,41.30
2019-06-08T13:40:18.572Z,42.50
2019-06-08T13:42:48.412Z,42.00
2019-06-08T13:45:22.134Z,41.70
2019-06-08T13:47:52.600Z,35.10
2019-06-08T13:50:24.011Z,39.40
2019-06-08T13:52:53.596Z,39.80
2019-06-08T13:55:47.108Z,36.40
2019-06-08T13:57:57.989Z,38.70
2019-06-08T14:00:38.133Z,38.90
2019-06-08T14:03:08.837Z,38.00
2019-06-08T14:05:39.187Z,36.50
2019-06-08T14:08:10.973Z,36.90
2019-06-08T14:10:42.106Z,35.10
2019-06-08T14:13:12.370Z,36.70
2019-06-08T14:15:43.445Z,36.20
2019-06-08T14:18:13.685Z,36.80
2019-06-08T14:20:43.955Z,36.10
2019-06-08T14:23:14.181Z,35.10
2019-06-08T14:25:50.570Z,35.40
2019-06-08T14:28:19.333Z,35.50
2019-06-08T14:30:48.247Z,32.50
2019-06-08T14:33:25.172Z,34.50
2019-06-08T14:35:50.379Z,35.30
2019-06-08T14:38:25.546Z,34.10
2019-06-08T14:40:52.595Z,34.10
2019-06-08T14:43:23.277Z,27.80
2019-06-08T14:45:53.593Z,31.20
2019-06-08T14:48:26.029Z,31.20
2019-06-08T14:50:58.291Z,31.80
2019-06-08T14:53:28.889Z,31.80
2019-06-08T14:56:05.584Z,29.70
2019-06-08T14:58:34.673Z,31.20
2019-06-08T15:01:03.976Z,29.90
2019-06-08T15:03:37.738Z,29.90
2019-06-08T15:06:08.314Z,29.80
2019-06-08T15:08:38.958Z,30.30
2019-06-08T15:11:09.940Z,29.90
2019-06-08T15:13:40.572Z,29.20
2019-06-08T15:16:10.922Z,27.30
2019-06-08T15:18:41.223Z,29.80
2019-06-08T15:21:11.924Z,28.40
2019-06-08T15:23:42.144Z,29.10
2019-06-08T15:26:26.606Z,29.50
2019-06-08T15:28:44.255Z,29.50
2019-06-08T15:31:18.371Z,27.80
2019-06-08T15:33:49.887Z,29.30
2019-06-08T15:36:20.859Z,29.30
2019-06-08T15:38:51.948Z,29.60
2019-06-08T15:41:24.249Z,29.00
2019-06-08T15:43:54.196Z,28.80
2019-06-08T15:46:24.450Z,29.10
2019-06-08T15:48:54.782Z,29.20
2019-06-08T15:51:26.369Z,29.20
2019-06-08T15:53:57.932Z,29.40
2019-06-08T15:56:41.754Z,29.40
2019-06-08T15:59:00.398Z,29.40
2019-06-08T16:01:31.792Z,29.30
2019-06-08T16:04:04.014Z,29.50
2019-06-08T16:06:38.853Z,29.60
2019-06-08T16:09:09.324Z,28.90
2019-06-08T16:11:39.683Z,29.80
2019-06-08T16:14:09.868Z,29.90
2019-06-08T16:16:40.156Z,30.00
2019-06-08T16:19:10.649Z,29.90
2019-06-08T16:21:40.983Z,30.10
2019-06-08T16:24:11.617Z,29.90
2019-06-08T16:26:52.624Z,30.00
2019-06-08T16:29:15.556Z,30.10
2019-06-08T16:31:46.879Z,30.20
2019-06-08T16:34:17.301Z,30.20
2019-06-08T16:36:47.727Z,30.40
2019-06-08T16:39:18.097Z,30.40
2019-06-08T16:41:48.346Z,30.60
2019-06-08T16:44:18.633Z,30.70
2019-06-08T16:46:49.087Z,31.00
2019-06-08T16:49:19.516Z,31.30
2019-06-08T16:51:49.797Z,31.10
2019-06-08T16:54:20.209Z,31.20
2019-06-08T16:56:50.448Z,31.40
2019-06-08T16:59:20.701Z,31.40
2019-06-08T17:01:51.012Z,31.60
2019-06-08T17:04:21.283Z,32.30
2019-06-08T17:06:51.581Z,35.60
2019-06-08T17:09:21.934Z,33.80
2019-06-08T17:11:52.541Z,34.00
2019-06-08T17:14:24.928Z,35.60
2019-06-08T17:16:54.994Z,36.90
2019-06-08T17:19:25.327Z,36.30
2019-06-08T17:21:55.774Z,37.60
2019-06-08T17:24:25.973Z,42.00
2019-06-08T17:26:56.326Z,38.60
2019-06-08T17:29:26.535Z,38.30
2019-06-08T17:31:56.749Z,38.70
2019-06-08T17:34:27.044Z,39.20
2019-06-08T17:36:57.344Z,39.20
2019-06-08T17:39:32.135Z,43.10
2019-06-08T17:42:02.354Z,40.20
2019-06-08T17:44:32.646Z,41.00
2019-06-08T17:47:02.894Z,40.80
2019-06-08T17:49:34.426Z,40.20
2019-06-08T17:52:04.812Z,41.00
2019-06-08T17:54:35.210Z,41.80
2019-06-08T17:57:05.500Z,41.00
2019-06-08T17:59:35.749Z,41.00
2019-06-08T18:02:08.059Z,40.90
2019-06-08T18:04:39.241Z,41.40
2019-06-08T18:07:08.885Z,44.50
2019-06-08T18:09:40.688Z,41.30
2019-06-08T18:12:11.116Z,41.40
2019-06-08T18:14:49.031Z,41.50
2019-06-08T18:17:19.307Z,41.80
2019-06-08T18:19:49.904Z,42.20
2019-06-08T18:22:20.224Z,42.70
2019-06-08T18:24:52.818Z,44.70
2019-06-08T18:27:23.161Z,42.90
2019-06-08T18:29:53.338Z,42.50
2019-06-08T18:32:23.668Z,43.00
2019-06-08T18:34:57.104Z,43.40
2019-06-08T18:37:28.452Z,43.90
2019-06-08T18:39:58.880Z,44.00
2019-06-08T18:42:29.088Z,44.00
2019-06-08T18:44:59.290Z,44.40
2019-06-08T18:47:29.520Z,44.30
2019-06-08T18:50:00.750Z,44.70
2019-06-08T18:52:30.926Z,44.80
2019-06-08T18:55:01.213Z,44.90
2019-06-08T18:57:31.469Z,45.20
2019-06-08T19:00:08.128Z,45.50
2019-06-08T19:02:33.709Z,45.50
2019-06-08T19:05:04.089Z,45.70
2019-06-08T19:07:34.703Z,46.00
2019-06-08T19:10:07.587Z,46.10
2019-06-08T19:12:39.640Z,46.20
2019-06-08T19:15:11.446Z,46.20
2019-06-08T19:17:48.226Z,46.40
2019-06-08T19:20:13.872Z,46.90
2019-06-08T19:22:47.711Z,46.60
2019-06-08T19:25:17.581Z,46.90
2019-06-08T19:27:53.053Z,46.90
2019-06-08T19:30:20.389Z,47.10
2019-06-08T19:32:52.571Z,47.10
2019-06-08T19:35:22.866Z,47.70
2019-06-08T19:37:53.890Z,47.60
2019-06-08T19:40:24.400Z,47.70
2019-06-08T19:42:58.023Z,48.10
2019-06-08T19:45:27.664Z,48.20
2019-06-08T19:47:58.967Z,48.10
2019-06-08T19:50:29.187Z,48.30
2019-06-08T19:52:59.574Z,48.70
2019-06-08T19:55:31.241Z,48.50
2019-06-08T19:58:01.588Z,48.80
2019-06-08T20:00:32.228Z,49.00
2019-06-08T20:03:02.591Z,49.70
2019-06-08T20:05:32.873Z,49.40
2019-06-08T20:08:03.169Z,49.40
2019-06-08T20:10:38.720Z,49.40
2019-06-08T20:13:08.968Z,49.70
2019-06-08T20:15:44.362Z,50.20
2019-06-08T20:18:12.170Z,49.90
2019-06-08T20:20:43.818Z,50.10
2019-06-08T20:23:14.044Z,50.20
2019-06-08T20:25:45.215Z,50.40
2019-06-08T20:28:17.335Z,51.40
2019-06-08T20:30:46.878Z,51.50
2019-06-08T20:33:23.303Z,53.50
2019-06-08T20:35:53.919Z,51.40
2019-06-08T20:38:35.114Z,51.50
2019-06-08T20:40:57.963Z,51.40
2019-06-08T20:43:28.483Z,51.50
2019-06-08T20:45:58.757Z,51.70
2019-06-08T20:48:29.051Z,51.70
2019-06-08T20:50:59.283Z,51.70
2019-06-08T20:53:29.501Z,51.60
2019-06-08T20:55:59.918Z,52.10
2019-06-08T20:58:31.249Z,52.20
2019-06-08T21:01:01.429Z,52.00
2019-06-08T21:03:33.680Z,52.00
2019-06-08T21:06:03.105Z,52.60
2019-06-08T21:08:33.146Z,54.50
2019-06-08T21:11:03.421Z,52.30
2019-06-08T21:13:37.859Z,52.80
2019-06-08T21:16:10.982Z,52.40
2019-06-08T21:18:46.892Z,52.50
2019-06-08T21:21:17.566Z,53.30
2019-06-08T21:23:51.653Z,52.80
2019-06-08T21:26:22.329Z,52.90
2019-06-08T21:28:54.445Z,53.30
2019-06-08T21:31:24.408Z,53.00
2019-06-08T21:33:56.726Z,53.30
2019-06-08T21:36:26.577Z,53.50
2019-06-08T21:39:00.501Z,54.00
2019-06-08T21:41:28.666Z,53.80
2019-06-08T21:44:01.893Z,53.50
2019-06-08T21:46:30.785Z,53.70
2019-06-08T21:49:01.022Z,53.70
2019-06-08T21:51:31.283Z,53.60
2019-06-08T21:54:01.503Z,53.80
2019-06-08T21:56:31.803Z,54.20
2019-06-08T21:59:02.007Z,54.10
2019-06-08T22:01:33.528Z,54.20
2019-06-08T22:04:03.820Z,54.20
2019-06-08T22:06:34.101Z,54.20
2019-06-08T22:09:07.811Z,54.20
2019-06-08T22:11:38.316Z,54.20
2019-06-08T22:14:08.563Z,54.20
2019-06-08T22:16:39.809Z,55.00
2019-06-08T22:19:10.107Z,54.70
2019-06-08T22:21:42.899Z,54.40
2019-06-08T22:24:13.237Z,55.20
2019-06-08T22:26:46.664Z,54.80
2019-06-08T22:29:18.235Z,54.90
2019-06-08T22:31:48.587Z,55.00
2019-06-08T22:34:18.848Z,54.90
2019-06-08T22:36:49.207Z,55.60
2019-06-08T22:39:19.511Z,55.50
2019-06-08T22:41:49.829Z,55.30
2019-06-08T22:44:20.005Z,55.30
2019-06-08T22:46:50.224Z,55.20
2019-06-08T22:49:29.703Z,55.30
2019-06-08T22:52:01.385Z,55.40
2019-06-08T22:54:31.808Z,55.40
2019-06-08T22:57:04.414Z,55.50
2019-06-08T22:59:33.981Z,55.70
2019-06-08T23:02:05.933Z,56.40
2019-06-08T23:04:51.195Z,55.60
2019-06-08T23:07:28.546Z,55.70
2019-06-08T23:09:55.014Z,55.80
2019-06-08T23:12:25.078Z,56.30
2019-06-08T23:14:56.885Z,57.10
2019-06-08T23:17:28.156Z,56.70
2019-06-08T23:19:59.262Z,56.40
2019-06-08T23:22:30.215Z,56.60
2019-06-08T23:25:01.596Z,56.60
2019-06-08T23:27:32.381Z,56.60
2019-06-08T23:30:03.827Z,56.70
2019-06-08T23:32:34.477Z,56.50
2019-06-08T23:35:09.573Z,56.60
2019-06-08T23:37:40.180Z,56.70
2019-06-08T23:40:10.598Z,56.70
2019-06-08T23:42:40.808Z,56.80
2019-06-08T23:45:11.006Z,57.40
2019-06-08T23:47:47.849Z,57.00
2019-06-08T23:50:17.912Z,57.00
2019-06-08T23:53:24.018Z,57.20
2019-06-08T23:56:18.905Z,57.20
2019-06-08T23:58:49.981Z,57.10
